Detalii statie SCHWAB AGRO ARDUD [00001CF5]

Toti senzorii

Date Temperatura solului [C]Precipitatii [mm]Voltaj baterie [mV]Leaf Wetness [Min]HC Air temperature [C]HC Relative humidity [%]Punctul de roua [C]
medieminmaxsumaultimatimpmedieminmaxmediemediemin
2017-08-14 20:00:00 0 6806 22.16 21.17 23.34 66.33 15.4 15
2017-08-14 21:00:00 0 6796 20.22 19.21 21.05 72.17 14.9 14
2017-08-14 22:01:00 0 6728 18.57 18.26 18.95 36.87 0
2017-08-14 23:00:00 0 6786 17.69 16.88 18.52 27.13 4.7 0
2017-08-15 00:00:00 0 6786 15.88 15.47 16.54 100 15.8 15.4
2017-08-15 01:00:00 0 6766 14.85 14.3 15.56 100 14.8 14.3
2017-08-15 02:00:00 0 6786 14.12 13.87 14.42 100 14 13.8
2017-08-15 03:00:00 0 6776 13.69 13.41 13.92 100 13.6 13.4
2017-08-15 04:00:00 0 6776 13.13 12.98 13.45 100 13.1 12.9
2017-08-15 05:00:00 0 6776 12.43 11.93 12.92 100 12.3 11.9
2017-08-15 06:00:00 0 6776 12.57 12.36 13.01 100 12.5 12.3
2017-08-15 07:00:00 0 6776 14.14 13.17 15.44 100 14.1 13.1
2017-08-15 08:00:00 0 6766 18.31 15.69 20.45 96.72 17.6 12
2017-08-15 09:00:00 0 6766 23.39 20.74 25.72 80.19 19.5 18.7
2017-08-15 10:00:00 0 6786 25.97 24.96 27.17 67.16 19.2 18.5
2017-08-15 11:00:00 0 6816 28.02 27.32 28.87 61.71 19.7 18.6
2017-08-15 12:00:00 0 6834 28.81 27.87 30.36 60.33 20.1 19.2
2017-08-15 13:00:00 0 6844 29.77 28.08 30.41 58.26 20.4 19.8
2017-08-15 14:00:00 0 6844 30.62 29.6 31.35 56.35 20.7 19.9
2017-08-15 15:00:00 0 6854 31.1 30.55 32.12 56.12 21.1 20.3
2017-08-15 16:00:00 0 6864 31.03 30.47 31.82 57.19 21.4 21
2017-08-15 17:00:00 0 6854 30.11 28.85 31.06 59.05 21 20.3
2017-08-15 18:00:00 0 6826 28.21 27.58 29.19 62.39 20.1 19.9
2017-08-15 19:00:00 0 6806 26.24 24.88 27.39 66.57 19.3 19
2017-08-15 20:00:00 0 6806 23.16 22.12 24.6 74.05 18.1 17.2
2017-08-15 21:00:00 0 6796 21.12 20.08 22.12 73.39 16 15.1
2017-08-15 22:00:00 0 6776 18.89 17.73 20.12 63.52 10.8 -2.2
2017-08-15 23:00:00 0 6786 17.77 17.38 18.07 7.9 0
2017-08-16 00:00:00 0 6776 16.74 16.29 17.16 50 8.2 0
2017-08-16 01:00:00 0 6786 15.69 15.41 16.09 91.66 0
2017-08-16 02:00:00 0 6756 14.95 14.67 15.3 100 14.9 14.6
2017-08-16 03:00:00 0 6766 14.53 14.24 14.77 91.66 0
2017-08-16 04:00:00 0 6766 14.15 13.87 14.56 98.16 13.7 10.3
2017-08-16 05:00:00 0 6776 13.78 13.47 14.03 100 13.7 13.4
2017-08-16 06:00:00 0 6756 13.6 13.46 13.89 100 13.5 13.4
2017-08-16 07:00:00 0 6766 15.12 14.02 16.69 100 15 14
2017-08-16 08:00:00 0 6766 19.44 17.07 21.89 25 0
2017-08-16 09:00:00 0 6766 23.59 22.42 25.14 0 0 0
2017-08-16 10:00:00 0 6776 26.38 24.9 27.5 0 0 0
2017-08-16 11:00:00 0 6796 28.39 27.33 29.73 3.37 -1.6 0
2017-08-16 12:00:00 0 6806 30.24 29.43 31.21 12.31 0
2017-08-16 13:00:00 0 6806 31.26 30.41 32.25 33.59 0
2017-08-16 14:00:00 0 6834 32.44 30.92 33.84 31.4 12.9 0
2017-08-16 15:00:00 0 6834 32.64 32.17 33.66 29.92 12.4 0
2017-08-16 16:00:00 0 6826 32.2 31.95 32.36 30.45 0
2017-08-16 17:00:00 0 6834 31.52 30.43 32.56 8.27 -7.4 -10.8
2017-08-16 18:00:00 0 6816 29.08 28.42 30.5 3.44 0
2017-08-16 19:00:00 0 6806 27.47 26.48 28.4 0 0 0